TimeCST,TemperatureF,Dew PointF,Humidity,Sea Level PressureIn,VisibilityMPH,Wind Direction,Wind SpeedMPH,Gust SpeedMPH,PrecipitationIn,Events,Conditions,WindDirDegrees,DateUTC
12:15 AM,10.4,3.2,73,30.33,10.0,NW,3.5,-,N/A,,Clear,310,2012-11-24 06:15:00
12:35 AM,10.4,3.2,73,30.33,10.0,NW,3.5,-,N/A,,Clear,310,2012-11-24 06:35:00
12:55 AM,10.4,3.2,73,30.32,10.0,NNW,3.5,-,N/A,,Clear,330,2012-11-24 06:55:00
1:15 AM,10.4,3.2,73,30.31,10.0,Calm,Calm,-,N/A,,Clear,0,2012-11-24 07:15:00
1:35 AM,10.4,3.2,73,30.29,10.0,Calm,Calm,-,N/A,,Clear,0,2012-11-24 07:35:00
1:55 AM,10.4,5.0,79,30.29,10.0,Calm,Calm,-,N/A,,Clear,0,2012-11-24 07:55:00
2:15 AM,10.4,3.2,73,30.29,10.0,Calm,Calm,-,N/A,,Clear,0,2012-11-24 08:15:00
2:35 AM,10.4,3.2,73,30.29,10.0,West,3.5,-,N/A,,Clear,280,2012-11-24 08:35:00
2:55 AM,10.4,5.0,79,30.28,10.0,Calm,Calm,-,N/A,,Clear,0,2012-11-24 08:55:00
3:15 AM,10.4,5.0,79,30.27,10.0,Calm,Calm,-,N/A,,Clear,0,2012-11-24 09:15:00
3:35 AM,12.2,5.0,73,30.26,10.0,Calm,Calm,-,N/A,,Clear,0,2012-11-24 09:35:00
3:55 AM,12.2,6.8,79,30.25,10.0,Calm,Calm,-,N/A,,Mostly Cloudy,0,2012-11-24 09:55:00
4:15 AM,12.2,6.8,79,30.25,10.0,Calm,Calm,-,N/A,,Mostly Cloudy,0,2012-11-24 10:15:00
4:35 AM,12.2,6.8,79,30.24,10.0,Calm,Calm,-,N/A,,Scattered Clouds,0,2012-11-24 10:35:00
4:55 AM,14.0,6.8,73,30.24,10.0,SE,3.5,-,N/A,,Overcast,130,2012-11-24 10:55:00
5:15 AM,15.8,6.8,68,30.24,10.0,SE,3.5,-,N/A,,Overcast,140,2012-11-24 11:15:00
5:35 AM,15.8,6.8,68,30.24,10.0,SE,3.5,-,N/A,,Overcast,140,2012-11-24 11:35:00
5:55 AM,15.8,6.8,68,30.23,10.0,SE,4.6,-,N/A,,Mostly Cloudy,130,2012-11-24 11:55:00
6:15 AM,15.8,6.8,68,30.22,10.0,ESE,5.8,-,N/A,,Mostly Cloudy,120,2012-11-24 12:15:00
6:35 AM,15.8,6.8,68,30.21,10.0,SE,8.1,-,N/A,,Overcast,130,2012-11-24 12:35:00
6:55 AM,15.8,8.6,73,30.19,10.0,SSE,8.1,-,N/A,,Overcast,150,2012-11-24 12:55:00
7:15 AM,15.8,8.6,73,30.19,10.0,SSE,10.4,-,N/A,,Overcast,160,2012-11-24 13:15:00
7:35 AM,17.6,8.6,68,30.18,10.0,SSE,9.2,-,N/A,,Overcast,160,2012-11-24 13:35:00
7:55 AM,17.6,6.8,63,30.17,10.0,South,10.4,-,N/A,,Mostly Cloudy,170,2012-11-24 13:55:00
8:15 AM,17.6,8.6,68,30.17,10.0,SSE,10.4,-,N/A,,Mostly Cloudy,160,2012-11-24 14:15:00
8:35 AM,17.6,8.6,68,30.17,10.0,SE,10.4,-,N/A,,Mostly Cloudy,140,2012-11-24 14:35:00
8:55 AM,17.6,8.6,68,30.15,10.0,SSE,10.4,-,N/A,,Mostly Cloudy,150,2012-11-24 14:55:00
9:15 AM,19.4,10.4,68,30.14,10.0,SSE,10.4,-,N/A,,Mostly Cloudy,160,2012-11-24 15:15:00
9:35 AM,19.4,10.4,68,30.14,10.0,SSE,12.7,-,N/A,,Overcast,160,2012-11-24 15:35:00
9:55 AM,21.2,10.4,63,30.12,10.0,SSE,11.5,-,N/A,,Overcast,150,2012-11-24 15:55:00
10:15 AM,21.2,10.4,63,30.12,10.0,SSE,13.8,-,N/A,,Overcast,160,2012-11-24 16:15:00
10:35 AM,23.0,10.4,59,30.12,10.0,SSE,10.4,-,N/A,,Overcast,160,2012-11-24 16:35:00
10:55 AM,23.0,10.4,59,30.09,10.0,South,15.0,-,N/A,,Overcast,170,2012-11-24 16:55:00
11:15 AM,24.8,12.2,59,30.06,10.0,SSE,16.1,-,N/A,,Overcast,160,2012-11-24 17:15:00
11:35 AM,26.6,12.2,55,30.04,10.0,SSE,16.1,20.7,N/A,,Scattered Clouds,160,2012-11-24 17:35:00
11:55 AM,28.4,12.2,51,30.02,10.0,SSE,15.0,21.9,N/A,,Clear,160,2012-11-24 17:55:00
12:15 PM,28.4,12.2,51,29.99,10.0,SSE,18.4,24.2,N/A,,Clear,160,2012-11-24 18:15:00
12:35 PM,30.2,12.2,47,29.97,10.0,SSE,15.0,23.0,N/A,,Clear,160,2012-11-24 18:35:00
12:55 PM,30.2,12.2,47,29.95,10.0,South,16.1,21.9,N/A,,Clear,170,2012-11-24 18:55:00
1:15 PM,32.0,12.2,44,29.92,10.0,SSE,17.3,25.3,N/A,,Clear,150,2012-11-24 19:15:00
1:35 PM,32.0,12.2,44,29.90,10.0,SSE,18.4,21.9,N/A,,Clear,150,2012-11-24 19:35:00
1:55 PM,33.8,14.0,44,29.89,10.0,SSE,17.3,23.0,N/A,,Clear,160,2012-11-24 19:55:00
2:15 PM,33.8,14.0,44,29.90,10.0,South,17.3,20.7,N/A,,Clear,170,2012-11-24 20:15:00
2:35 PM,35.6,14.0,41,29.88,10.0,South,15.0,20.7,N/A,,Clear,170,2012-11-24 20:35:00
2:55 PM,37.4,15.8,41,29.86,10.0,South,21.9,27.6,N/A,,Scattered Clouds,190,2012-11-24 20:55:00
3:15 PM,37.4,15.8,41,29.86,10.0,South,20.7,28.8,N/A,,Mostly Cloudy,190,2012-11-24 21:15:00
3:35 PM,37.4,14.0,38,29.86,10.0,SSW,19.6,24.2,N/A,,Partly Cloudy,200,2012-11-24 21:35:00
3:55 PM,35.6,14.0,41,29.85,10.0,SSW,19.6,25.3,N/A,,Partly Cloudy,200,2012-11-24 21:55:00
4:15 PM,35.6,14.0,41,29.84,10.0,SSW,20.7,26.5,N/A,,Clear,200,2012-11-24 22:15:00
4:35 PM,35.6,14.0,41,29.84,10.0,SSW,15.0,19.6,N/A,,Clear,200,2012-11-24 22:35:00
4:55 PM,35.6,14.0,41,29.83,10.0,South,12.7,-,N/A,,Clear,190,2012-11-24 22:55:00
5:15 PM,35.6,14.0,41,29.83,10.0,SSW,12.7,-,N/A,,Mostly Cloudy,200,2012-11-24 23:15:00
5:35 PM,33.8,14.0,44,29.83,10.0,SSW,12.7,-,N/A,,Mostly Cloudy,200,2012-11-24 23:35:00
5:55 PM,33.8,14.0,44,29.83,10.0,SSW,11.5,-,N/A,,Overcast,200,2012-11-24 23:55:00
6:15 PM,33.8,12.2,41,29.84,10.0,SSW,9.2,-,N/A,,Mostly Cloudy,210,2012-11-25 00:15:00
6:35 PM,32.0,14.0,48,29.82,10.0,SSW,12.7,-,N/A,,Scattered Clouds,200,2012-11-25 00:35:00
6:55 PM,32.0,14.0,48,29.81,10.0,SSW,13.8,-,N/A,,Mostly Cloudy,200,2012-11-25 00:55:00
7:15 PM,33.8,14.0,44,29.81,10.0,SSW,12.7,-,N/A,,Overcast,210,2012-11-25 01:15:00
7:35 PM,33.8,14.0,44,29.80,10.0,SW,16.1,-,N/A,,Overcast,220,2012-11-25 01:35:00
7:55 PM,33.8,14.0,44,29.81,10.0,SW,16.1,-,N/A,,Overcast,220,2012-11-25 01:55:00
8:15 PM,33.8,15.8,48,29.80,10.0,SW,18.4,-,N/A,,Overcast,230,2012-11-25 02:15:00
8:35 PM,33.8,15.8,48,29.81,10.0,SW,16.1,23.0,N/A,,Scattered Clouds,230,2012-11-25 02:35:00
8:55 PM,33.8,15.8,48,29.81,10.0,SW,11.5,18.4,N/A,,Clear,230,2012-11-25 02:55:00
9:15 PM,33.8,15.8,48,29.80,10.0,SW,11.5,-,N/A,,Clear,230,2012-11-25 03:15:00
9:35 PM,33.8,15.8,48,29.81,10.0,WSW,10.4,-,N/A,,Clear,250,2012-11-25 03:35:00
9:55 PM,33.8,15.8,48,29.81,10.0,West,10.4,-,N/A,,Scattered Clouds,260,2012-11-25 03:55:00
10:15 PM,32.0,15.8,51,29.80,10.0,WSW,11.5,-,N/A,,Partly Cloudy,240,2012-11-25 04:15:00
10:35 PM,32.0,15.8,51,29.81,10.0,West,10.4,-,N/A,,Clear,260,2012-11-25 04:35:00
10:55 PM,33.8,15.8,48,29.81,10.0,WNW,10.4,-,N/A,,Clear,290,2012-11-25 04:55:00
11:15 PM,33.8,17.6,52,29.82,10.0,WNW,11.5,-,N/A,,Clear,290,2012-11-25 05:15:00
11:35 PM,33.8,17.6,52,29.83,10.0,WNW,9.2,-,N/A,,Clear,290,2012-11-25 05:35:00
11:55 PM,32.0,17.6,55,29.83,10.0,West,6.9,-,N/A,,Clear,260,2012-11-25 05:55:00